SAS783 ENBO-ENAT
Flight info
| Callsign | SAS783 |
|---|---|
| Flight time | 0h 49m |
| Altitude | 37000 |
| Route | PENNO DCT ABASU DCT MOKAX DCT BADIX |
| Aircraft | A320/M-SDE3FGHIRWY/LB1 |
Departure
| Time | 2026-04-27 23:19 |
|---|---|
| Airport | Bodø Airport (ENBO) |
Arrival
| Time | 2026-04-28 00:08 |
|---|---|
| Airport | Alta Airport (ENAT) |
| Time | Latitude | Longitude | Altitude | Speed | Heading |
|---|---|---|---|---|---|
| 2026-04-27 22:59 | 67.27189 | 14.36917 | 44 ft | 0 kts | 292° |
| 2026-04-27 23:12 | 67.27177 | 14.36983 | 42 ft | 4 kts | 301° |
| 2026-04-27 23:12 | 67.27162 | 14.37039 | 42 ft | 4 kts | 305° |
| 2026-04-27 23:12 | 67.27152 | 14.37079 | 46 ft | 4 kts | 296° |
| 2026-04-27 23:13 | 67.27143 | 14.37139 | 47 ft | 4 kts | 262° |
| 2026-04-27 23:13 | 67.27162 | 14.37178 | 47 ft | 4 kts | 176° |
| 2026-04-27 23:13 | 67.27183 | 14.37171 | 44 ft | 0 kts | 168° |
| 2026-04-27 23:15 | 67.27182 | 14.37172 | 44 ft | 1 kts | 168° |
| 2026-04-27 23:16 | 67.27168 | 14.37179 | 48 ft | 3 kts | 168° |
| 2026-04-27 23:16 | 67.27147 | 14.37191 | 50 ft | 3 kts | 168° |
| 2026-04-27 23:16 | 67.27133 | 14.37198 | 50 ft | 0 kts | 168° |
| 2026-04-27 23:16 | 67.27132 | 14.37200 | 50 ft | 1 kts | 163° |
| 2026-04-27 23:17 | 67.27125 | 14.37387 | 56 ft | 14 kts | 86° |
| 2026-04-27 23:17 | 67.27132 | 14.37667 | 55 ft | 18 kts | 86° |
| 2026-04-27 23:17 | 67.27155 | 14.38002 | 56 ft | 21 kts | 83° |
| 2026-04-27 23:17 | 67.27136 | 14.38333 | 53 ft | 15 kts | 126° |
| 2026-04-27 23:18 | 67.27069 | 14.38294 | 54 ft | 13 kts | 258° |
| 2026-04-27 23:18 | 67.27041 | 14.37892 | 48 ft | 51 kts | 260° |
| 2026-04-27 23:18 | 67.26909 | 14.36376 | 39 ft | 118 kts | 257° |
| 2026-04-27 23:18 | 67.26722 | 14.33834 | 118 ft | 157 kts | 255° |
| 2026-04-27 23:19 | 67.26439 | 14.31132 | 742 ft | 153 kts | 262° |
| 2026-04-27 23:19 | 67.26264 | 14.28437 | 1415 ft | 152 kts | 265° |
| 2026-04-27 23:19 | 67.26334 | 14.25701 | 1912 ft | 161 kts | 298° |
| 2026-04-27 23:19 | 67.27131 | 14.23493 | 2285 ft | 181 kts | 333° |
| 2026-04-27 23:20 | 67.28382 | 14.22276 | 2699 ft | 202 kts | 341° |
| 2026-04-27 23:20 | 67.29755 | 14.21015 | 3158 ft | 225 kts | 340° |
| 2026-04-27 23:20 | 67.31283 | 14.19583 | 4052 ft | 234 kts | 340° |
| 2026-04-27 23:20 | 67.32809 | 14.18134 | 5002 ft | 238 kts | 339° |
| 2026-04-27 23:21 | 67.34373 | 14.16636 | 5973 ft | 241 kts | 339° |
| 2026-04-27 23:21 | 67.35953 | 14.15109 | 6922 ft | 245 kts | 339° |
| 2026-04-27 23:21 | 67.37568 | 14.13582 | 7864 ft | 247 kts | 343° |
| 2026-04-27 23:21 | 67.39263 | 14.13284 | 8819 ft | 250 kts | 8° |
| 2026-04-27 23:22 | 67.40888 | 14.15068 | 9691 ft | 262 kts | 34° |
| 2026-04-27 23:22 | 67.42096 | 14.18755 | 10506 ft | 274 kts | 51° |
| 2026-04-27 23:22 | 67.43178 | 14.23012 | 10920 ft | 294 kts | 51° |
| 2026-04-27 23:22 | 67.44349 | 14.27600 | 11138 ft | 317 kts | 51° |
| 2026-04-27 23:23 | 67.45615 | 14.32568 | 11386 ft | 336 kts | 51° |
| 2026-04-27 23:23 | 67.46914 | 14.37710 | 12012 ft | 343 kts | 51° |
| 2026-04-27 23:23 | 67.48227 | 14.42927 | 12743 ft | 346 kts | 51° |
| 2026-04-27 23:23 | 67.49549 | 14.48180 | 13482 ft | 349 kts | 51° |
| 2026-04-27 23:24 | 67.50893 | 14.53527 | 14212 ft | 352 kts | 51° |
| 2026-04-27 23:24 | 67.52238 | 14.58890 | 14867 ft | 354 kts | 51° |
| 2026-04-27 23:24 | 67.53589 | 14.64284 | 15528 ft | 356 kts | 50° |
| 2026-04-27 23:24 | 67.54958 | 14.69752 | 16181 ft | 358 kts | 50° |
| 2026-04-27 23:25 | 67.56325 | 14.75232 | 16840 ft | 360 kts | 50° |
| 2026-04-27 23:25 | 67.57694 | 14.80738 | 17519 ft | 363 kts | 50° |
| 2026-04-27 23:25 | 67.59090 | 14.86246 | 18207 ft | 363 kts | 48° |
| 2026-04-27 23:25 | 67.60575 | 14.91656 | 18886 ft | 364 kts | 46° |
| 2026-04-27 23:26 | 67.62093 | 14.96925 | 19474 ft | 366 kts | 45° |
| 2026-04-27 23:26 | 67.63665 | 15.02282 | 20062 ft | 369 kts | 45° |
| 2026-04-27 23:26 | 67.65234 | 15.07639 | 20736 ft | 370 kts | 45° |
| 2026-04-27 23:26 | 67.66793 | 15.13035 | 21354 ft | 372 kts | 45° |
| 2026-04-27 23:27 | 67.68344 | 15.18474 | 21889 ft | 374 kts | 45° |
| 2026-04-27 23:27 | 67.69908 | 15.24024 | 22403 ft | 377 kts | 45° |
| 2026-04-27 23:27 | 67.71446 | 15.29522 | 22898 ft | 380 kts | 45° |
| 2026-04-27 23:27 | 67.73018 | 15.35152 | 23380 ft | 382 kts | 45° |
| 2026-04-27 23:28 | 67.74609 | 15.40859 | 23848 ft | 385 kts | 45° |
| 2026-04-27 23:28 | 67.76192 | 15.46549 | 24252 ft | 388 kts | 45° |
| 2026-04-27 23:28 | 67.77807 | 15.52368 | 24631 ft | 390 kts | 45° |
| 2026-04-27 23:28 | 67.79396 | 15.58093 | 24995 ft | 392 kts | 45° |
| 2026-04-27 23:29 | 67.80996 | 15.63879 | 25356 ft | 393 kts | 45° |
| 2026-04-27 23:29 | 67.82621 | 15.69786 | 25754 ft | 395 kts | 45° |
| 2026-04-27 23:29 | 67.84240 | 15.75681 | 26097 ft | 398 kts | 45° |
| 2026-04-27 23:29 | 67.85870 | 15.81620 | 26427 ft | 400 kts | 45° |
| 2026-04-27 23:30 | 67.87512 | 15.87628 | 26812 ft | 402 kts | 45° |
| 2026-04-27 23:30 | 67.89148 | 15.93638 | 27164 ft | 404 kts | 45° |
| 2026-04-27 23:30 | 67.90792 | 15.99710 | 27514 ft | 406 kts | 45° |
| 2026-04-27 23:30 | 67.92444 | 16.05817 | 27865 ft | 409 kts | 45° |
| 2026-04-27 23:31 | 67.94189 | 16.11807 | 28181 ft | 404 kts | 39° |
| 2026-04-27 23:31 | 67.96105 | 16.17288 | 28530 ft | 404 kts | 38° |
| 2026-04-27 23:31 | 67.98015 | 16.22744 | 28999 ft | 403 kts | 38° |
| 2026-04-27 23:31 | 67.99931 | 16.28236 | 29481 ft | 402 kts | 38° |
| 2026-04-27 23:32 | 68.01820 | 16.33669 | 30078 ft | 400 kts | 38° |
| 2026-04-27 23:32 | 68.03703 | 16.39110 | 30597 ft | 398 kts | 38° |
| 2026-04-27 23:32 | 68.05574 | 16.44524 | 30943 ft | 399 kts | 39° |
| 2026-04-27 23:32 | 68.07479 | 16.50038 | 31274 ft | 401 kts | 39° |
| 2026-04-27 23:33 | 68.09364 | 16.55507 | 31633 ft | 402 kts | 39° |
| 2026-04-27 23:33 | 68.11274 | 16.61063 | 31942 ft | 404 kts | 40° |
| 2026-04-27 23:33 | 68.13182 | 16.66626 | 32300 ft | 405 kts | 40° |
| 2026-04-27 23:33 | 68.15092 | 16.72216 | 32640 ft | 407 kts | 40° |
| 2026-04-27 23:34 | 68.17002 | 16.77828 | 32989 ft | 408 kts | 41° |
| 2026-04-27 23:34 | 68.18921 | 16.83486 | 33314 ft | 410 kts | 41° |
| 2026-04-27 23:34 | 68.20846 | 16.89164 | 33620 ft | 412 kts | 41° |
| 2026-04-27 23:34 | 68.22776 | 16.94872 | 33970 ft | 413 kts | 42° |
| 2026-04-27 23:35 | 68.24681 | 17.00528 | 34313 ft | 414 kts | 42° |
| 2026-04-27 23:35 | 68.26644 | 17.06384 | 34628 ft | 416 kts | 42° |
| 2026-04-27 23:35 | 68.28581 | 17.12174 | 34909 ft | 417 kts | 43° |
| 2026-04-27 23:35 | 68.30530 | 17.18011 | 35188 ft | 418 kts | 43° |
| 2026-04-27 23:36 | 68.32481 | 17.23863 | 35485 ft | 419 kts | 43° |
| 2026-04-27 23:36 | 68.34410 | 17.29649 | 35745 ft | 421 kts | 43° |
| 2026-04-27 23:36 | 68.36372 | 17.35563 | 35999 ft | 422 kts | 43° |
| 2026-04-27 23:36 | 68.38328 | 17.41475 | 36264 ft | 423 kts | 43° |
| 2026-04-27 23:37 | 68.40300 | 17.47454 | 36526 ft | 424 kts | 44° |
| 2026-04-27 23:37 | 68.42270 | 17.53453 | 36724 ft | 425 kts | 44° |
| 2026-04-27 23:37 | 68.44231 | 17.59443 | 37001 ft | 426 kts | 44° |
| 2026-04-27 23:37 | 68.46216 | 17.65528 | 37267 ft | 427 kts | 44° |
| 2026-04-27 23:38 | 68.48188 | 17.71582 | 37386 ft | 430 kts | 44° |
| 2026-04-27 23:38 | 68.50180 | 17.77710 | 37418 ft | 433 kts | 44° |
| 2026-04-27 23:38 | 68.54173 | 17.90047 | 37412 ft | 435 kts | 44° |
| 2026-04-27 23:39 | 68.58160 | 18.02537 | 37409 ft | 437 kts | 46° |
| 2026-04-27 23:39 | 68.61883 | 18.15655 | 37405 ft | 440 kts | 50° |
| 2026-04-27 23:40 | 68.65454 | 18.29375 | 37403 ft | 440 kts | 50° |
| 2026-04-27 23:40 | 68.69022 | 18.43081 | 37398 ft | 440 kts | 50° |
| 2026-04-27 23:41 | 68.71231 | 18.51435 | 37399 ft | 440 kts | 50° |
| 2026-04-27 23:41 | 68.72490 | 18.56192 | 37406 ft | 440 kts | 50° |
| 2026-04-27 23:42 | 68.76073 | 18.69701 | 37407 ft | 435 kts | 50° |
| 2026-04-27 23:42 | 68.79681 | 18.83389 | 37412 ft | 448 kts | 50° |
| 2026-04-27 23:43 | 68.83366 | 18.97496 | 37388 ft | 458 kts | 50° |
| 2026-04-27 23:43 | 68.87104 | 19.11951 | 37386 ft | 464 kts | 51° |
| 2026-04-27 23:44 | 68.90241 | 19.24171 | 37390 ft | 469 kts | 51° |
| 2026-04-27 23:44 | 68.93924 | 19.38647 | 37387 ft | 447 kts | 51° |
| 2026-04-27 23:45 | 68.97487 | 19.52689 | 37384 ft | 442 kts | 51° |
| 2026-04-27 23:45 | 69.01034 | 19.66680 | 37384 ft | 442 kts | 51° |
| 2026-04-27 23:46 | 69.04562 | 19.80736 | 37091 ft | 441 kts | 51° |
| 2026-04-27 23:46 | 69.06313 | 19.87777 | 36863 ft | 441 kts | 51° |
| 2026-04-27 23:46 | 69.08161 | 19.94584 | 36616 ft | 437 kts | 44° |
| 2026-04-27 23:47 | 69.10209 | 20.00903 | 36367 ft | 437 kts | 44° |
| 2026-04-27 23:47 | 69.12352 | 20.06887 | 36072 ft | 432 kts | 35° |
| 2026-04-27 23:47 | 69.14740 | 20.11946 | 35577 ft | 430 kts | 33° |
| 2026-04-27 23:47 | 69.17152 | 20.16877 | 35074 ft | 428 kts | 32° |
| 2026-04-27 23:48 | 69.19553 | 20.21798 | 34600 ft | 427 kts | 33° |
| 2026-04-27 23:48 | 69.21916 | 20.26875 | 34067 ft | 427 kts | 36° |
| 2026-04-27 23:48 | 69.24169 | 20.32282 | 33370 ft | 425 kts | 37° |
| 2026-04-27 23:48 | 69.26359 | 20.37692 | 32657 ft | 422 kts | 37° |
| 2026-04-27 23:49 | 69.28547 | 20.43201 | 31966 ft | 419 kts | 37° |
| 2026-04-27 23:49 | 69.30723 | 20.48786 | 31243 ft | 416 kts | 37° |
| 2026-04-27 23:49 | 69.32817 | 20.54272 | 30529 ft | 413 kts | 37° |
| 2026-04-27 23:49 | 69.34908 | 20.59794 | 29585 ft | 411 kts | 37° |
| 2026-04-27 23:50 | 69.37003 | 20.65314 | 28546 ft | 411 kts | 37° |
| 2026-04-27 23:50 | 69.39089 | 20.70816 | 27452 ft | 411 kts | 37° |
| 2026-04-27 23:50 | 69.41187 | 20.76360 | 26380 ft | 411 kts | 37° |
| 2026-04-27 23:50 | 69.43304 | 20.81872 | 25158 ft | 415 kts | 37° |
| 2026-04-27 23:51 | 69.45441 | 20.87333 | 24450 ft | 412 kts | 37° |
| 2026-04-27 23:51 | 69.47575 | 20.92790 | 23921 ft | 411 kts | 37° |
| 2026-04-27 23:51 | 69.49692 | 20.98221 | 23274 ft | 408 kts | 37° |
| 2026-04-27 23:51 | 69.51801 | 21.03600 | 22652 ft | 406 kts | 37° |
| 2026-04-27 23:52 | 69.53908 | 21.08953 | 22045 ft | 404 kts | 37° |
| 2026-04-27 23:52 | 69.56007 | 21.14271 | 21440 ft | 402 kts | 37° |
| 2026-04-27 23:52 | 69.58097 | 21.19545 | 20844 ft | 400 kts | 37° |
| 2026-04-27 23:52 | 69.60178 | 21.24777 | 20278 ft | 399 kts | 38° |
| 2026-04-27 23:53 | 69.62281 | 21.30012 | 19725 ft | 398 kts | 37° |
| 2026-04-27 23:53 | 69.64362 | 21.35171 | 19173 ft | 396 kts | 37° |
| 2026-04-27 23:53 | 69.66460 | 21.40356 | 18618 ft | 395 kts | 38° |
| 2026-04-27 23:53 | 69.68511 | 21.45551 | 17990 ft | 394 kts | 41° |
| 2026-04-27 23:54 | 69.70432 | 21.51116 | 17363 ft | 391 kts | 43° |
| 2026-04-27 23:54 | 69.72307 | 21.56642 | 16755 ft | 388 kts | 43° |
| 2026-04-27 23:54 | 69.74200 | 21.62215 | 16157 ft | 384 kts | 43° |
| 2026-04-27 23:54 | 69.76067 | 21.67709 | 15550 ft | 381 kts | 43° |
| 2026-04-27 23:55 | 69.77916 | 21.73137 | 14993 ft | 378 kts | 43° |
| 2026-04-27 23:55 | 69.79752 | 21.78513 | 14435 ft | 375 kts | 43° |
| 2026-04-27 23:55 | 69.81564 | 21.83809 | 13847 ft | 372 kts | 43° |
| 2026-04-27 23:55 | 69.83400 | 21.89188 | 13214 ft | 370 kts | 43° |
| 2026-04-27 23:56 | 69.85176 | 21.94423 | 12614 ft | 367 kts | 43° |
| 2026-04-27 23:56 | 69.86954 | 21.99696 | 12007 ft | 364 kts | 43° |
| 2026-04-27 23:56 | 69.88738 | 22.05019 | 11416 ft | 362 kts | 43° |
| 2026-04-27 23:56 | 69.90465 | 22.10208 | 10854 ft | 360 kts | 43° |
| 2026-04-27 23:57 | 69.92184 | 22.15409 | 10281 ft | 354 kts | 43° |
| 2026-04-27 23:57 | 69.93886 | 22.20592 | 9659 ft | 346 kts | 43° |
| 2026-04-27 23:57 | 69.95511 | 22.25581 | 9052 ft | 341 kts | 43° |
| 2026-04-27 23:57 | 69.97130 | 22.30568 | 8449 ft | 336 kts | 44° |
| 2026-04-27 23:58 | 69.98596 | 22.35841 | 7854 ft | 332 kts | 47° |
| 2026-04-27 23:58 | 70.00269 | 22.40301 | 7265 ft | 323 kts | 34° |
| 2026-04-27 23:58 | 70.02049 | 22.44226 | 6699 ft | 319 kts | 33° |
| 2026-04-27 23:58 | 70.03696 | 22.48460 | 6080 ft | 318 kts | 43° |
| 2026-04-27 23:59 | 70.05158 | 22.53382 | 5491 ft | 319 kts | 52° |
| 2026-04-27 23:59 | 70.06293 | 22.58978 | 5075 ft | 319 kts | 60° |
| 2026-04-27 23:59 | 70.07083 | 22.64956 | 5005 ft | 306 kts | 66° |
| 2026-04-27 23:59 | 70.07787 | 22.70657 | 5018 ft | 290 kts | 66° |
| 2026-04-28 00:00 | 70.08462 | 22.76097 | 5026 ft | 277 kts | 65° |
| 2026-04-28 00:00 | 70.09103 | 22.81273 | 5017 ft | 265 kts | 65° |
| 2026-04-28 00:00 | 70.09723 | 22.86284 | 5017 ft | 260 kts | 65° |
| 2026-04-28 00:00 | 70.10338 | 22.91257 | 5022 ft | 259 kts | 65° |
| 2026-04-28 00:01 | 70.10947 | 22.96211 | 5014 ft | 251 kts | 65° |
| 2026-04-28 00:01 | 70.11515 | 23.00888 | 5009 ft | 237 kts | 65° |
| 2026-04-28 00:01 | 70.12048 | 23.05303 | 5014 ft | 229 kts | 65° |
| 2026-04-28 00:01 | 70.12583 | 23.09703 | 5012 ft | 228 kts | 65° |
| 2026-04-28 00:02 | 70.13114 | 23.14099 | 5013 ft | 228 kts | 65° |
| 2026-04-28 00:02 | 70.13642 | 23.18494 | 5010 ft | 228 kts | 65° |
| 2026-04-28 00:02 | 70.14170 | 23.22896 | 5011 ft | 228 kts | 65° |
| 2026-04-28 00:02 | 70.14698 | 23.27311 | 5013 ft | 228 kts | 65° |
| 2026-04-28 00:03 | 70.15225 | 23.31713 | 5009 ft | 228 kts | 65° |
| 2026-04-28 00:03 | 70.15564 | 23.36299 | 5012 ft | 234 kts | 87° |
| 2026-04-28 00:03 | 70.15162 | 23.40786 | 5003 ft | 223 kts | 117° |
| 2026-04-28 00:03 | 70.14153 | 23.44065 | 5001 ft | 212 kts | 145° |
| 2026-04-28 00:04 | 70.12836 | 23.45630 | 4847 ft | 200 kts | 172° |
| 2026-04-28 00:04 | 70.10110 | 23.44626 | 4011 ft | 196 kts | 195° |
| 2026-04-28 00:04 | 70.08760 | 23.43833 | 3665 ft | 198 kts | 190° |
| 2026-04-28 00:05 | 70.07381 | 23.43846 | 3297 ft | 200 kts | 174° |
| 2026-04-28 00:05 | 70.06017 | 23.44750 | 2912 ft | 201 kts | 168° |
| 2026-04-28 00:05 | 70.04649 | 23.45553 | 2524 ft | 202 kts | 170° |
| 2026-04-28 00:05 | 70.03270 | 23.46442 | 2171 ft | 201 kts | 168° |
| 2026-04-28 00:06 | 70.01947 | 23.47341 | 1754 ft | 188 kts | 167° |
| 2026-04-28 00:06 | 70.00698 | 23.47886 | 1513 ft | 177 kts | 181° |
| 2026-04-28 00:06 | 69.99516 | 23.47467 | 1286 ft | 168 kts | 196° |
| 2026-04-28 00:06 | 69.98413 | 23.46709 | 1050 ft | 161 kts | 195° |
| 2026-04-28 00:07 | 69.97409 | 23.45606 | 837 ft | 148 kts | 217° |
| 2026-04-28 00:07 | 69.96793 | 23.43432 | 720 ft | 137 kts | 253° |
| 2026-04-28 00:07 | 69.96909 | 23.40879 | 438 ft | 132 kts | 292° |
| 2026-04-28 00:07 | 69.97333 | 23.38566 | 65 ft | 125 kts | 300° |
| 2026-04-28 00:08 | 69.97712 | 23.36655 | 35 ft | 79 kts | 301° |
| 2026-04-28 00:08 | 69.97834 | 23.36064 | 33 ft | 1 kts | 291° |
| 2026-04-28 00:08 | 69.97842 | 23.35947 | 33 ft | 14 kts | 262° |
| 2026-04-28 00:08 | 69.97800 | 23.35822 | 35 ft | 7 kts | 222° |
| 2026-04-28 00:09 | 69.97819 | 23.35610 | 35 ft | 32 kts | 287° |
| 2026-04-28 00:09 | 69.97865 | 23.35122 | 35 ft | 4 kts | 256° |
| 2026-04-28 00:09 | 69.97857 | 23.35027 | 33 ft | 0 kts | 249° |
| 2026-04-28 00:09 | 69.97853 | 23.35008 | 34 ft | 1 kts | 244° |
| 2026-04-28 00:10 | 69.97847 | 23.34984 | 35 ft | 2 kts | 225° |
| 2026-04-28 00:10 | 69.97832 | 23.34952 | 35 ft | 4 kts | 214° |
| 2026-04-28 00:10 | 69.97804 | 23.34902 | 35 ft | 0 kts | 211° |